Terminal Aerodrome Forecast
Issued by NWS

Current Version | Previous Version | Text Only | Print | Product List | Glossary On
Versions: 1 2 3 4 5 6 7 8 9 10 11 12 13 14 15 16 17 18 19 20 21 22 23 24 25 26 27 28 29 30 31 32
000
FTAK31 PANC 011918 AAA
TAFADQ
TAF AMD
PADQ 011918Z 0119/0218 12018G25KT 6SM -RA BR SCT010 OVC025
      TEMPO 0119/0123 2SM -RA BR BKN010
     FM020200 13006KT 6SM BR SCT003 BKN035
     FM021000 30007KT P6SM -RA BKN015 OVC035=

USA.gov is the U.S. government's official web portal to all federal, state and local government web resources and services.